Airport View

Enter AWOS ICAO identifier for current METAR.

ex. KFNL

KSBO 280255Z AUTO 16005KT 10SM OVC065 22/22 A2998 RMK AO2

28 Sep 2020 03:29

Frequency: 133.375

Phone: 478-237-8437

Other Area AWOS: K2J3 - KVDI - KDBN - KOKZ

TAF AMD KAGS 280224Z 2802/2824 VRB03KT 1/2SM FG VV002 FM281300 VRB02KT 1SM BR BKN005 FM281500 18004KT 4SM HZ BKN015 FM281800 18005KT P6SM BKN035